Time;durP1;ratioP1;P1;durP2;ratioP2;P2;SDS_P1;SDS_P2;PMS_P1;PMS_P2;Temp;Humidity;BMP_temperature;BMP_pressure;BME280_temperature;BME280_humidity;BME280_pressure;Samples;Min_cycle;Max_cycle;Signal;HPM_P1;HPM_P2
2021/11/19 00:00:53;;;;;;;;;23.25;21.75;;;;;;;;5032449;28;50082;-75
2021/11/19 00:03:19;;;;;;;;;28.00;27.25;;;;;;;;5049604;28;49804;-75
2021/11/19 00:05:44;;;;;;;;;27.00;24.25;;;;;;;;5050272;28;50077;-73
2021/11/19 00:08:10;;;;;;;;;27.00;24.00;;;;;;;;5049970;28;49598;-75
2021/11/19 00:10:36;;;;;;;;;21.75;20.75;;;;;;;;5050351;28;49574;-75
2021/11/19 00:13:01;;;;;;;;;22.50;21.00;;;;;;;;5050095;28;50361;-75
2021/11/19 00:15:26;;;;;;;;;34.50;24.50;;;;;;;;5050173;28;49749;-75
2021/11/19 00:17:52;;;;;;;;;25.00;23.75;;;;;;;;5050353;28;49811;-75
2021/11/19 00:20:20;;;;;;;;;19.75;18.25;;;;;;;;5053913;28;50057;-74
2021/11/19 00:22:45;;;;;;;;;22.75;20.50;;;;;;;;5053364;28;50923;-74
2021/11/19 00:25:10;;;;;;;;;15.00;12.25;;;;;;;;5053196;28;49847;-74
2021/11/19 00:27:37;;;;;;;;;16.25;16.25;;;;;;;;5053666;28;49787;-74
2021/11/19 00:30:09;;;;;;;;;21.00;20.50;;;;;;;;5053732;28;49854;-74
2021/11/19 00:32:34;;;;;;;;;19.75;19.75;;;;;;;;5053231;28;50367;-73
2021/11/19 00:34:59;;;;;;;;;19.50;19.50;;;;;;;;5053451;28;49693;-74
2021/11/19 00:37:24;;;;;;;;;21.00;19.25;;;;;;;;5053147;28;49935;-76
2021/11/19 00:39:50;;;;;;;;;26.50;22.00;;;;;;;;5053816;28;49822;-74
2021/11/19 00:42:15;;;;;;;;;28.00;25.25;;;;;;;;5053226;28;50250;-75
2021/11/19 00:44:40;;;;;;;;;21.75;20.75;;;;;;;;5053247;28;49933;-77
2021/11/19 00:47:07;;;;;;;;;20.75;20.00;;;;;;;;5053390;28;49785;-76
2021/11/19 00:49:33;;;;;;;;;20.25;16.50;;;;;;;;5053513;28;49971;-75
2021/11/19 00:51:59;;;;;;;;;22.50;21.25;;;;;;;;5052254;28;50722;-75
2021/11/19 00:54:24;;;;;;;;;21.50;21.25;;;;;;;;5033947;28;49969;-74
2021/11/19 00:56:52;;;;;;;;;26.00;22.00;;;;;;;;5053173;28;49490;-73
2021/11/19 00:59:18;;;;;;;;;21.00;19.50;;;;;;;;5053189;28;49888;-74
2021/11/19 01:01:45;;;;;;;;;26.25;21.75;;;;;;;;5052944;28;49933;-74
2021/11/19 01:04:10;;;;;;;;;23.00;20.25;;;;;;;;5052148;28;49886;-75
2021/11/19 01:06:36;;;;;;;;;20.75;20.75;;;;;;;;5053054;28;49756;-74
2021/11/19 01:09:04;;;;;;;;;24.25;22.50;;;;;;;;5034760;28;49771;-74
2021/11/19 01:11:30;;;;;;;;;21.00;19.00;;;;;;;;5052638;28;51635;-73
2021/11/19 01:13:56;;;;;;;;;18.25;18.25;;;;;;;;5052883;28;49776;-73
2021/11/19 01:16:24;;;;;;;;;26.00;22.25;;;;;;;;5052883;28;49716;-74
2021/11/19 01:18:52;;;;;;;;;22.00;18.75;;;;;;;;5052992;28;50200;-73
2021/11/19 01:21:23;;;;;;;;;24.00;21.75;;;;;;;;5052580;28;51001;-72
2021/11/19 01:23:49;;;;;;;;;27.00;23.75;;;;;;;;5052356;28;49625;-73
2021/11/19 01:26:20;;;;;;;;;23.25;22.25;;;;;;;;5052632;28;49787;-74
2021/11/19 01:28:46;;;;;;;;;21.50;21.00;;;;;;;;5052976;28;49605;-73
2021/11/19 01:31:15;;;;;;;;;24.50;21.00;;;;;;;;5052576;28;49738;-72
2021/11/19 01:33:41;;;;;;;;;24.25;20.25;;;;;;;;5052481;28;49983;-72
2021/11/19 01:36:06;;;;;;;;;26.75;22.50;;;;;;;;5052782;28;49736;-73
2021/11/19 01:38:32;;;;;;;;;18.75;17.50;;;;;;;;5052308;28;49910;-75
2021/11/19 01:41:00;;;;;;;;;22.00;21.25;;;;;;;;5034101;28;51594;-73
2021/11/19 01:43:26;;;;;;;;;21.25;19.75;;;;;;;;5052554;28;50064;-74
2021/11/19 01:45:53;;;;;;;;;22.00;20.00;;;;;;;;5052495;28;49755;-76
2021/11/19 01:48:20;;;;;;;;;22.50;19.00;;;;;;;;5052593;28;50063;-75
2021/11/19 01:50:55;;;;;;;;;18.25;17.25;;;;;;;;5034002;28;52553;-74
2021/11/19 01:53:33;;;;;;;;;21.50;20.75;;;;;;;;5033941;28;49732;-77
2021/11/19 01:56:03;;;;;;;;;24.00;21.00;;;;;;;;5052282;28;49780;-76
2021/11/19 01:58:35;;;;;;;;;33.50;29.00;;;;;;;;5052388;28;49831;-76
2021/11/19 02:01:09;;;;;;;;;19.50;19.50;;;;;;;;5051793;28;50689;-76
2021/11/19 02:03:35;;;;;;;;;24.75;21.75;;;;;;;;5052201;28;49765;-76
2021/11/19 02:06:03;;;;;;;;;22.00;19.00;;;;;;;;5052172;28;49773;-76
2021/11/19 02:08:32;;;;;;;;;26.75;23.75;;;;;;;;5033908;28;49991;-77
2021/11/19 02:11:16;;;;;;;;;22.50;21.50;;;;;;;;5051920;28;49988;-74
2021/11/19 02:13:44;;;;;;;;;20.50;20.50;;;;;;;;5052028;28;49653;-76
2021/11/19 02:16:18;;;;;;;;;23.25;19.00;;;;;;;;5052183;28;49676;-74
2021/11/19 02:18:55;;;;;;;;;25.75;21.00;;;;;;;;5052111;28;49597;-75
2021/11/19 02:21:25;;;;;;;;;23.25;21.50;;;;;;;;5051578;28;50868;-75
2021/11/19 02:23:51;;;;;;;;;16.75;15.75;;;;;;;;5051602;28;49805;-75
2021/11/19 02:26:21;;;;;;;;;23.75;21.75;;;;;;;;5051840;28;49851;-77
2021/11/19 02:28:48;;;;;;;;;22.25;20.00;;;;;;;;5033971;28;50009;-77
2021/11/19 02:31:19;;;;;;;;;21.75;20.50;;;;;;;;5033500;28;50358;-78
2021/11/19 02:33:45;;;;;;;;;21.00;19.00;;;;;;;;5051685;28;49803;-76
2021/11/19 02:36:12;;;;;;;;;24.25;21.50;;;;;;;;5051751;28;49817;-77
2021/11/19 02:38:58;;;;;;;;;27.25;22.75;;;;;;;;5051545;28;49998;-77
2021/11/19 02:41:26;;;;;;;;;21.00;20.00;;;;;;;;5050921;28;49799;-75
2021/11/19 02:43:55;;;;;;;;;20.25;18.00;;;;;;;;5051481;28;49555;-74
2021/11/19 02:46:25;;;;;;;;;17.75;16.00;;;;;;;;5051586;28;49878;-77
2021/11/19 02:48:51;;;;;;;;;21.00;20.00;;;;;;;;5051709;28;49817;-76
2021/11/19 02:51:16;;;;;;;;;23.25;17.25;;;;;;;;5051320;28;51000;-77
2021/11/19 02:53:42;;;;;;;;;23.00;21.50;;;;;;;;5051232;28;49835;-76
2021/11/19 02:56:08;;;;;;;;;20.75;19.75;;;;;;;;5051158;28;49780;-76
2021/11/19 02:58:35;;;;;;;;;25.00;21.25;;;;;;;;5051436;28;49499;-77
2021/11/19 03:01:09;;;;;;;;;15.00;14.25;;;;;;;;5051103;28;50484;-76
2021/11/19 03:03:37;;;;;;;;;18.50;18.50;;;;;;;;5051245;28;49672;-76
2021/11/19 03:06:03;;;;;;;;;26.75;24.25;;;;;;;;5051412;28;50035;-77
2021/11/19 03:08:28;;;;;;;;;22.50;20.00;;;;;;;;5051135;28;49729;-77
2021/11/19 03:10:55;;;;;;;;;23.75;22.25;;;;;;;;5050993;28;50308;-77
2021/11/19 03:13:21;;;;;;;;;30.25;20.50;;;;;;;;5051142;28;49697;-77
2021/11/19 03:15:47;;;;;;;;;28.00;23.25;;;;;;;;5051129;28;49590;-74
2021/11/19 03:18:13;;;;;;;;;18.50;18.00;;;;;;;;5051243;28;49579;-76
2021/11/19 03:20:40;;;;;;;;;22.00;21.25;;;;;;;;5050695;28;52642;-76
2021/11/19 03:23:06;;;;;;;;;23.75;21.75;;;;;;;;5050822;28;49778;-74
2021/11/19 03:25:32;;;;;;;;;25.75;21.00;;;;;;;;5050484;28;49566;-75
2021/11/19 03:27:58;;;;;;;;;27.00;23.50;;;;;;;;5051052;28;49762;-76
2021/11/19 03:30:24;;;;;;;;;24.00;21.25;;;;;;;;5050751;28;50618;-76
2021/11/19 03:32:50;;;;;;;;;23.00;22.75;;;;;;;;5050693;28;49765;-76
2021/11/19 03:35:16;;;;;;;;;22.00;20.50;;;;;;;;5050927;28;50067;-74
2021/11/19 03:37:42;;;;;;;;;21.25;18.75;;;;;;;;5050758;28;49730;-76
2021/11/19 03:40:08;;;;;;;;;21.75;20.75;;;;;;;;5050366;28;49858;-75
2021/11/19 03:42:34;;;;;;;;;25.50;24.25;;;;;;;;5050678;28;49747;-75
2021/11/19 03:45:00;;;;;;;;;24.00;20.50;;;;;;;;5050583;28;49760;-76
2021/11/19 03:47:31;;;;;;;;;17.75;17.75;;;;;;;;5050808;28;49922;-75
2021/11/19 03:49:57;;;;;;;;;21.25;20.25;;;;;;;;5050522;28;50493;-76
2021/11/19 03:52:24;;;;;;;;;21.75;20.00;;;;;;;;5049828;28;49830;-74
2021/11/19 03:54:51;;;;;;;;;22.25;18.50;;;;;;;;5050169;28;49773;-76
2021/11/19 03:57:17;;;;;;;;;18.75;18.75;;;;;;;;5050744;28;49560;-77
2021/11/19 03:59:43;;;;;;;;;20.25;18.00;;;;;;;;5050358;28;49697;-74
2021/11/19 04:02:08;;;;;;;;;18.75;18.00;;;;;;;;5050425;28;49939;-75
2021/11/19 04:04:35;;;;;;;;;25.00;19.75;;;;;;;;5050437;28;49623;-73
2021/11/19 04:07:03;;;;;;;;;28.25;21.75;;;;;;;;5050344;28;49632;-76
2021/11/19 04:09:29;;;;;;;;;14.25;12.75;;;;;;;;5050130;28;50926;-75
2021/11/19 04:11:54;;;;;;;;;22.75;22.75;;;;;;;;5050104;28;49807;-77
2021/11/19 04:14:19;;;;;;;;;23.50;21.25;;;;;;;;5050296;28;49800;-76
2021/11/19 04:16:46;;;;;;;;;21.50;18.75;;;;;;;;5050349;28;49673;-77
2021/11/19 04:19:12;;;;;;;;;25.75;24.00;;;;;;;;5049999;28;50735;-76
2021/11/19 04:21:38;;;;;;;;;22.50;20.50;;;;;;;;5050196;28;49649;-76
2021/11/19 04:24:06;;;;;;;;;20.75;15.50;;;;;;;;5031892;28;49761;-76
2021/11/19 04:26:32;;;;;;;;;26.00;18.25;;;;;;;;5049902;28;49716;-75
2021/11/19 04:28:57;;;;;;;;;26.00;22.00;;;;;;;;5049893;28;49922;-74
2021/11/19 04:31:24;;;;;;;;;23.00;18.50;;;;;;;;5050086;28;49827;-74
2021/11/19 04:33:50;;;;;;;;;21.25;21.25;;;;;;;;5050234;28;49938;-75
2021/11/19 04:36:16;;;;;;;;;17.00;15.50;;;;;;;;5050334;28;49905;-75
2021/11/19 04:38:42;;;;;;;;;20.00;20.00;;;;;;;;5049498;28;50957;-74
2021/11/19 04:41:07;;;;;;;;;22.50;21.75;;;;;;;;5049731;28;49838;-77
2021/11/19 04:43:33;;;;;;;;;22.00;20.50;;;;;;;;5050112;28;49935;-77
2021/11/19 04:45:58;;;;;;;;;21.50;21.25;;;;;;;;5050107;28;49936;-76
2021/11/19 04:48:24;;;;;;;;;20.25;19.50;;;;;;;;5049624;28;49807;-76
2021/11/19 04:50:51;;;;;;;;;21.50;20.00;;;;;;;;5049964;28;49791;-74
2021/11/19 04:53:18;;;;;;;;;19.50;19.50;;;;;;;;5049551;28;49583;-75
2021/11/19 04:55:44;;;;;;;;;25.00;22.25;;;;;;;;5049912;28;49772;-76
2021/11/19 04:58:10;;;;;;;;;24.25;20.75;;;;;;;;5049521;28;50401;-75
2021/11/19 05:00:40;;;;;;;;;22.25;20.75;;;;;;;;5049668;28;49595;-75
2021/11/19 05:03:06;;;;;;;;;23.25;20.00;;;;;;;;5049990;28;49881;-76
2021/11/19 05:05:32;;;;;;;;;16.50;16.50;;;;;;;;5034432;28;50031;-75
2021/11/19 05:07:57;;;;;;;;;17.50;15.75;;;;;;;;5052864;28;49702;-75
2021/11/19 05:10:22;;;;;;;;;20.75;18.25;;;;;;;;5053456;28;49971;-75
2021/11/19 05:12:49;;;;;;;;;17.25;16.00;;;;;;;;5053172;28;49823;-76
2021/11/19 05:15:14;;;;;;;;;19.75;18.75;;;;;;;;5053295;28;49755;-76
2021/11/19 05:17:40;;;;;;;;;22.00;17.75;;;;;;;;5052988;28;50795;-76
2021/11/19 05:20:07;;;;;;;;;20.75;20.50;;;;;;;;5052962;28;49868;-76
2021/11/19 05:22:32;;;;;;;;;21.75;18.75;;;;;;;;5052713;28;49826;-75
2021/11/19 05:24:57;;;;;;;;;22.75;22.00;;;;;;;;5052840;28;50469;-75
2021/11/19 05:27:23;;;;;;;;;25.00;21.00;;;;;;;;5052607;28;50453;-76
2021/11/19 05:29:48;;;;;;;;;25.00;25.00;;;;;;;;5034618;28;49952;-76
2021/11/19 05:32:13;;;;;;;;;29.25;21.50;;;;;;;;5052770;28;49853;-76
2021/11/19 05:34:39;;;;;;;;;23.00;21.50;;;;;;;;5052888;28;49847;-76
2021/11/19 05:37:04;;;;;;;;;24.25;21.75;;;;;;;;5052058;28;50557;-76
2021/11/19 05:39:29;;;;;;;;;22.75;22.75;;;;;;;;5052539;28;49739;-77
2021/11/19 05:41:54;;;;;;;;;22.50;19.50;;;;;;;;5052718;28;49898;-76
2021/11/19 05:44:20;;;;;;;;;20.50;19.50;;;;;;;;5052707;28;49851;-77
2021/11/19 05:46:46;;;;;;;;;17.25;17.25;;;;;;;;5052361;28;50651;-76
2021/11/19 05:49:14;;;;;;;;;21.75;20.25;;;;;;;;5052570;28;49930;-75
2021/11/19 05:51:40;;;;;;;;;24.00;21.00;;;;;;;;5052033;28;49904;-76
2021/11/19 05:54:07;;;;;;;;;20.50;19.50;;;;;;;;5052562;28;49741;-76
2021/11/19 05:56:32;;;;;;;;;22.75;22.25;;;;;;;;5052160;28;49704;-75
2021/11/19 05:58:57;;;;;;;;;26.25;23.75;;;;;;;;5052215;28;49863;-76
2021/11/19 06:01:22;;;;;;;;;23.75;21.50;;;;;;;;5052362;28;49945;-76
2021/11/19 06:03:49;;;;;;;;;22.25;22.00;;;;;;;;5052155;28;49624;-75
2021/11/19 06:06:14;;;;;;;;;22.50;21.50;;;;;;;;5051914;28;50634;-75
2021/11/19 06:08:40;;;;;;;;;24.00;22.75;;;;;;;;5051840;28;49958;-76
2021/11/19 06:11:13;;;;;;;;;30.50;22.75;;;;;;;;5052089;28;49859;-76
2021/11/19 06:13:59;;;;;;;;;25.50;22.00;;;;;;;;5052300;28;49634;-75
2021/11/19 06:16:27;;;;;;;;;23.75;21.50;;;;;;;;5050439;28;50948;-76
2021/11/19 06:18:54;;;;;;;;;18.00;17.75;;;;;;;;5051753;28;49698;-76
2021/11/19 06:21:24;;;;;;;;;24.50;21.00;;;;;;;;5052068;28;49705;-75
2021/11/19 06:23:51;;;;;;;;;26.50;25.25;;;;;;;;5051769;28;49863;-76
2021/11/19 06:26:18;;;;;;;;;25.00;21.50;;;;;;;;5051244;28;49646;-76
2021/11/19 06:28:45;;;;;;;;;24.75;19.75;;;;;;;;5051756;28;49652;-77
2021/11/19 06:31:11;;;;;;;;;24.75;23.00;;;;;;;;5033605;28;49853;-75
2021/11/19 06:33:37;;;;;;;;;28.00;21.75;;;;;;;;5052043;28;49765;-76
2021/11/19 06:36:03;;;;;;;;;28.00;24.50;;;;;;;;5051479;28;50434;-76
2021/11/19 06:38:28;;;;;;;;;23.00;20.25;;;;;;;;5033050;28;49867;-76
2021/11/19 06:40:53;;;;;;;;;23.25;23.25;;;;;;;;5033479;28;49907;-74
2021/11/19 06:43:19;;;;;;;;;25.75;23.25;;;;;;;;5051774;28;49743;-75
2021/11/19 06:45:44;;;;;;;;;25.75;22.00;;;;;;;;5051182;28;49669;-75
2021/11/19 06:48:09;;;;;;;;;23.75;22.00;;;;;;;;5051477;28;49678;-74
2021/11/19 06:50:40;;;;;;;;;23.25;21.00;;;;;;;;5055381;28;50085;-72
2021/11/19 06:53:06;;;;;;;;;24.75;18.00;;;;;;;;5051324;28;50105;-89
2021/11/19 06:55:31;;;;;;;;;28.50;24.00;;;;;;;;5033168;28;51292;-75
2021/11/19 06:57:57;;;;;;;;;29.50;26.25;;;;;;;;5051019;28;49753;-77
2021/11/19 07:00:28;;;;;;;;;18.25;17.50;;;;;;;;5051243;28;49788;-71
2021/11/19 07:02:53;;;;;;;;;23.75;22.75;;;;;;;;5051288;28;49635;-70
2021/11/19 07:05:19;;;;;;;;;25.25;22.50;;;;;;;;5051071;28;49764;-72
2021/11/19 07:07:45;;;;;;;;;23.75;20.75;;;;;;;;5050768;28;49727;-71
2021/11/19 07:10:10;;;;;;;;;23.00;20.00;;;;;;;;5050991;28;49613;-71
2021/11/19 07:12:36;;;;;;;;;23.75;20.75;;;;;;;;5051128;28;49663;-71
2021/11/19 07:15:02;;;;;;;;;27.50;25.75;;;;;;;;5050596;28;49889;-73
2021/11/19 07:17:28;;;;;;;;;22.75;19.25;;;;;;;;5050911;28;49940;-72
2021/11/19 07:19:53;;;;;;;;;22.50;22.00;;;;;;;;5051011;28;49742;-72
2021/11/19 07:22:18;;;;;;;;;24.75;21.50;;;;;;;;5050805;28;49672;-72
2021/11/19 07:24:43;;;;;;;;;30.50;24.00;;;;;;;;5050761;28;49791;-76
2021/11/19 07:27:11;;;;;;;;;23.00;21.50;;;;;;;;5050631;28;49727;-75
2021/11/19 07:29:36;;;;;;;;;23.00;19.00;;;;;;;;5050853;28;49750;-75
2021/11/19 07:32:02;;;;;;;;;20.50;19.50;;;;;;;;5057960;28;49807;-74
2021/11/19 07:34:27;;;;;;;;;24.25;21.75;;;;;;;;5032556;28;51271;-71
2021/11/19 07:36:52;;;;;;;;;25.50;23.00;;;;;;;;5050455;28;49785;-71
2021/11/19 07:39:18;;;;;;;;;32.00;28.75;;;;;;;;5050913;28;49833;-71
2021/11/19 07:41:43;;;;;;;;;29.50;22.50;;;;;;;;5050826;28;49676;-72
2021/11/19 07:44:08;;;;;;;;;26.75;25.75;;;;;;;;5050346;28;50238;-72
2021/11/19 07:46:33;;;;;;;;;35.25;29.00;;;;;;;;5050622;28;49718;-71
2021/11/19 07:48:59;;;;;;;;;26.50;25.25;;;;;;;;5050707;28;49764;-71
2021/11/19 07:51:28;;;;;;;;;27.50;24.75;;;;;;;;5074397;27;49890;-70
2021/11/19 07:53:54;;;;;;;;;31.50;28.25;;;;;;;;5072045;27;49613;-72
2021/11/19 07:56:26;;;;;;;;;4.25;4.25;;;;;;;;5074818;27;49766;-75
2021/11/19 07:58:52;;;;;;;;;30.50;26.50;;;;;;;;5054682;28;49744;-74
2021/11/19 08:01:17;;;;;;;;;33.50;30.50;;;;;;;;5075392;28;49761;-73
2021/11/19 08:03:42;;;;;;;;;30.50;30.00;;;;;;;;5070478;28;50704;-75
2021/11/19 08:06:08;;;;;;;;;35.00;28.50;;;;;;;;5078893;28;49277;-69
2021/11/19 08:08:34;;;;;;;;;31.00;30.00;;;;;;;;5081757;28;49634;-70
2021/11/19 08:11:00;;;;;;;;;40.75;35.25;;;;;;;;5077099;28;49720;-69
2021/11/19 08:13:26;;;;;;;;;32.50;29.50;;;;;;;;5077192;28;50627;-72
2021/11/19 08:15:52;;;;;;;;;34.50;32.75;;;;;;;;5072299;28;49723;-79
2021/11/19 08:18:20;;;;;;;;;38.75;33.75;;;;;;;;5076536;28;49758;-67
2021/11/19 08:20:46;;;;;;;;;29.50;28.75;;;;;;;;5072238;28;49523;-68
2021/11/19 08:23:14;;;;;;;;;29.50;29.00;;;;;;;;5074592;27;49767;-70
2021/11/19 08:25:40;;;;;;;;;35.25;31.00;;;;;;;;5066832;27;49805;-70
2021/11/19 08:28:05;;;;;;;;;31.25;29.25;;;;;;;;5072848;28;49787;-71
2021/11/19 08:30:32;;;;;;;;;33.50;32.75;;;;;;;;5054049;28;49938;-72
2021/11/19 08:32:59;;;;;;;;;21.25;14.25;;;;;;;;5069989;28;50637;-71
2021/11/19 08:35:25;;;;;;;;;32.25;27.00;;;;;;;;5077723;28;49365;-70
2021/11/19 08:37:51;;;;;;;;;27.50;25.75;;;;;;;;5068142;28;49828;-71
2021/11/19 08:40:16;;;;;;;;;36.00;29.25;;;;;;;;5071870;28;49875;-70
2021/11/19 08:42:44;;;;;;;;;32.50;27.75;;;;;;;;5075030;28;50512;-71
2021/11/19 08:45:10;;;;;;;;;29.50;28.75;;;;;;;;5076293;28;49671;-72
2021/11/19 08:47:35;;;;;;;;;26.50;25.25;;;;;;;;5078123;28;49763;-72
2021/11/19 08:50:04;;;;;;;;;28.25;25.75;;;;;;;;5076780;28;49769;-72
2021/11/19 08:52:29;;;;;;;;;31.75;29.50;;;;;;;;5076653;28;50747;-71
2021/11/19 08:54:55;;;;;;;;;28.50;28.25;;;;;;;;5079485;28;49507;-71
2021/11/19 08:57:21;;;;;;;;;20.00;18.50;;;;;;;;5074141;28;49716;-71
2021/11/19 08:59:47;;;;;;;;;31.50;29.50;;;;;;;;5075202;28;49719;-73
2021/11/19 09:02:14;;;;;;;;;32.00;28.25;;;;;;;;5077831;28;49873;-72
2021/11/19 09:04:39;;;;;;;;;25.50;24.50;;;;;;;;5075839;28;49834;-70
2021/11/19 09:07:05;;;;;;;;;31.25;29.25;;;;;;;;5080366;28;49637;-72
2021/11/19 09:09:30;;;;;;;;;25.00;24.25;;;;;;;;5078035;28;49962;-72
2021/11/19 09:11:55;;;;;;;;;32.50;31.75;;;;;;;;5077939;28;50002;-71
2021/11/19 09:14:22;;;;;;;;;35.25;34.00;;;;;;;;5074739;28;49975;-71
2021/11/19 09:16:50;;;;;;;;;34.00;32.25;;;;;;;;5073343;28;50008;-72
2021/11/19 09:19:35;;;;;;;;;40.50;35.50;;;;;;;;5076019;28;49660;-74
2021/11/19 09:22:16;;;;;;;;;42.50;37.25;;;;;;;;5072915;28;50478;-72
2021/11/19 09:24:42;;;;;;;;;38.50;34.25;;;;;;;;5073808;28;49799;-71
2021/11/19 09:27:10;;;;;;;;;40.00;35.00;;;;;;;;5075685;28;49850;-70
2021/11/19 09:29:40;;;;;;;;;32.50;28.75;;;;;;;;5074612;28;50147;-69
2021/11/19 09:32:06;;;;;;;;;32.75;31.50;;;;;;;;5073026;28;50709;-71
2021/11/19 09:34:34;;;;;;;;;34.25;26.50;;;;;;;;5076390;28;49600;-71
2021/11/19 09:37:00;;;;;;;;;36.75;33.50;;;;;;;;5074667;28;49721;-70
2021/11/19 09:39:28;;;;;;;;;26.50;23.25;;;;;;;;5072954;28;49739;-70
2021/11/19 09:42:02;;;;;;;;;23.25;23.25;;;;;;;;5074038;28;50968;-69
2021/11/19 09:44:46;;;;;;;;;26.25;26.25;;;;;;;;5074214;28;49879;-70
2021/11/19 09:47:29;;;;;;;;;28.25;26.50;;;;;;;;5074026;28;49618;-70
2021/11/19 09:50:13;;;;;;;;;22.25;18.50;;;;;;;;5072960;28;49809;-70
2021/11/19 09:52:42;;;;;;;;;24.00;24.00;;;;;;;;5071402;28;50511;-68
2021/11/19 09:55:10;;;;;;;;;27.50;23.75;;;;;;;;5075216;28;49751;-68
2021/11/19 09:57:38;;;;;;;;;22.75;21.25;;;;;;;;5075418;28;49927;-70
2021/11/19 10:00:12;;;;;;;;;25.50;22.25;;;;;;;;5074245;28;49875;-70
2021/11/19 10:02:46;;;;;;;;;20.50;19.50;;;;;;;;5072447;28;49612;-68
2021/11/19 10:05:33;;;;;;;;;26.75;20.00;;;;;;;;5073518;28;49754;-69
2021/11/19 10:08:01;;;;;;;;;21.50;19.75;;;;;;;;5074808;28;49828;-70
2021/11/19 10:10:51;;;;;;;;;25.75;23.50;;;;;;;;5079212;28;49653;-70
2021/11/19 10:13:32;;;;;;;;;21.50;18.00;;;;;;;;5076945;28;49900;-71
2021/11/19 10:16:03;;;;;;;;;23.00;23.00;;;;;;;;5081423;28;49585;-68
2021/11/19 10:18:36;;;;;;;;;21.75;20.75;;;;;;;;5082440;27;49608;-72
2021/11/19 10:21:07;;;;;;;;;23.50;21.50;;;;;;;;5073935;28;49819;-71
2021/11/19 10:23:44;;;;;;;;;28.00;26.00;;;;;;;;5071807;28;51049;-69
2021/11/19 10:26:18;;;;;;;;;26.25;26.25;;;;;;;;5072544;28;49636;-72
2021/11/19 10:28:49;;;;;;;;;29.00;29.00;;;;;;;;5071836;28;49883;-71
2021/11/19 10:31:16;;;;;;;;;27.00;24.25;;;;;;;;5073572;28;49713;-71
2021/11/19 10:33:44;;;;;;;;;39.00;30.75;;;;;;;;5071689;28;49902;-69
2021/11/19 10:36:17;;;;;;;;;30.75;27.50;;;;;;;;5071884;28;49747;-69
2021/11/19 10:38:42;;;;;;;;;31.00;28.25;;;;;;;;5072130;28;49766;-70
2021/11/19 10:41:23;;;;;;;;;35.50;31.00;;;;;;;;5074245;28;49581;-70
2021/11/19 10:43:51;;;;;;;;;27.00;23.25;;;;;;;;5072198;28;49738;-69
2021/11/19 10:46:28;;;;;;;;;40.00;35.50;;;;;;;;5075149;28;49561;-70
2021/11/19 10:49:06;;;;;;;;;29.00;27.00;;;;;;;;5071748;28;49727;-70
2021/11/19 10:51:57;;;;;;;;;25.25;25.25;;;;;;;;5076113;28;49812;-70
2021/11/19 10:54:22;;;;;;;;;25.25;22.50;;;;;;;;5068123;28;50561;-71
2021/11/19 10:56:51;;;;;;;;;24.75;24.00;;;;;;;;5071842;27;49731;-68
2021/11/19 10:59:20;;;;;;;;;36.75;32.25;;;;;;;;5053043;28;49683;-71
2021/11/19 11:02:05;;;;;;;;;24.50;24.50;;;;;;;;5071349;27;50037;-71
2021/11/19 11:04:39;;;;;;;;;30.50;28.75;;;;;;;;5070829;28;50709;-71
2021/11/19 11:07:30;;;;;;;;;28.50;25.50;;;;;;;;5071169;27;49639;-71
2021/11/19 11:09:58;;;;;;;;;28.00;26.75;;;;;;;;5047903;28;50016;-70
2021/11/19 11:12:42;;;;;;;;;26.50;26.25;;;;;;;;5053391;27;49811;-71
2021/11/19 11:15:16;;;;;;;;;24.75;24.75;;;;;;;;5071264;28;49694;-71
2021/11/19 11:17:55;;;;;;;;;29.00;22.75;;;;;;;;5071197;28;49771;-75
2021/11/19 11:20:26;;;;;;;;;26.25;23.25;;;;;;;;5071319;27;49549;-72
2021/11/19 11:22:53;;;;;;;;;22.75;17.00;;;;;;;;5070572;28;49807;-74
2021/11/19 11:25:27;;;;;;;;;23.50;22.00;;;;;;;;5070808;28;50248;-72
2021/11/19 11:28:02;;;;;;;;;24.75;23.50;;;;;;;;5070064;28;49859;-71
2021/11/19 11:30:43;;;;;;;;;34.50;28.75;;;;;;;;5069380;28;49758;-71
2021/11/19 11:33:28;;;;;;;;;29.50;27.25;;;;;;;;5070280;28;49801;-71
2021/11/19 11:36:04;;;;;;;;;37.00;29.25;;;;;;;;5069920;28;50689;-71
2021/11/19 11:38:44;;;;;;;;;47.25;38.00;;;;;;;;5069783;28;49762;-72
2021/11/19 11:41:11;;;;;;;;;42.00;34.75;;;;;;;;5070373;28;49982;-71
2021/11/19 11:43:39;;;;;;;;;38.50;32.00;;;;;;;;5071033;28;49762;-71
2021/11/19 11:46:19;;;;;;;;;30.75;30.75;;;;;;;;5070351;27;49843;-71
2021/11/19 11:48:44;;;;;;;;;35.00;33.75;;;;;;;;5070729;28;49636;-70
2021/11/19 11:51:30;;;;;;;;;26.00;23.25;;;;;;;;5071039;27;49911;-70
2021/11/19 11:54:17;;;;;;;;;28.00;25.00;;;;;;;;5048609;27;49665;-70
2021/11/19 11:56:44;;;;;;;;;30.50;28.50;;;;;;;;5070417;28;50724;-70
2021/11/19 11:59:16;;;;;;;;;32.50;29.50;;;;;;;;5070584;28;49697;-70
2021/11/19 12:01:44;;;;;;;;;34.50;30.00;;;;;;;;5070595;28;49589;-71
2021/11/19 12:04:15;;;;;;;;;24.00;23.25;;;;;;;;5070839;28;50133;-71
2021/11/19 12:06:47;;;;;;;;;30.00;27.25;;;;;;;;5069998;28;50298;-71
2021/11/19 12:09:21;;;;;;;;;33.00;27.00;;;;;;;;5070452;28;49822;-71
2021/11/19 12:11:56;;;;;;;;;23.25;22.50;;;;;;;;5070457;28;49797;-70
2021/11/19 12:14:21;;;;;;;;;30.25;24.75;;;;;;;;5071590;28;49764;-70
2021/11/19 12:16:55;;;;;;;;;25.20;24.40;;;;;;;;5074059;28;50859;-70
2021/11/19 12:19:35;;;;;;;;;33.50;28.75;;;;;;;;5073862;27;49900;-71
2021/11/19 12:22:07;;;;;;;;;28.50;27.50;;;;;;;;5073890;28;49869;-71
2021/11/19 12:24:35;;;;;;;;;25.25;25.25;;;;;;;;5074290;28;49833;-71
2021/11/19 12:27:06;;;;;;;;;23.00;22.50;;;;;;;;5073655;27;50872;-71
2021/11/19 12:29:51;;;;;;;;;26.25;21.50;;;;;;;;5073638;27;49763;-71
2021/11/19 12:32:16;;;;;;;;;20.50;20.50;;;;;;;;5073908;28;49829;-71
2021/11/19 12:34:53;;;;;;;;;21.50;19.00;;;;;;;;5074010;28;49882;-71
2021/11/19 12:37:29;;;;;;;;;20.00;18.75;;;;;;;;5073240;27;50501;-70
2021/11/19 12:39:54;;;;;;;;;19.75;17.50;;;;;;;;5073727;27;49872;-71
2021/11/19 12:42:35;;;;;;;;;20.50;19.50;;;;;;;;5073738;28;49811;-70
2021/11/19 12:45:03;;;;;;;;;21.50;19.00;;;;;;;;5073860;28;49965;-70
2021/11/19 12:47:40;;;;;;;;;23.75;22.25;;;;;;;;5073946;28;50623;-71
2021/11/19 12:50:13;;;;;;;;;24.25;21.50;;;;;;;;5073556;28;49666;-70
2021/11/19 12:52:41;;;;;;;;;26.25;23.75;;;;;;;;5073267;27;49810;-71
2021/11/19 12:55:22;;;;;;;;;20.50;19.25;;;;;;;;5073738;28;49802;-71
2021/11/19 12:58:06;;;;;;;;;26.50;24.25;;;;;;;;5073372;28;49875;-71
2021/11/19 13:00:37;;;;;;;;;21.25;20.50;;;;;;;;5073576;28;49749;-71
2021/11/19 13:03:17;;;;;;;;;23.50;21.25;;;;;;;;5073546;27;49789;-73
2021/11/19 13:06:01;;;;;;;;;21.00;19.25;;;;;;;;5073509;28;49894;-74
2021/11/19 13:08:38;;;;;;;;;18.25;14.50;;;;;;;;5072878;28;49865;-70
2021/11/19 13:11:39;;;;;;;;;26.75;23.75;;;;;;;;5073347;28;49737;-72
2021/11/19 13:14:13;;;;;;;;;17.25;16.50;;;;;;;;5030040;28;49837;-70
2021/11/19 13:16:39;;;;;;;;;21.25;19.25;;;;;;;;5066598;28;50076;-71
2021/11/19 13:19:24;;;;;;;;;19.00;14.75;;;;;;;;5072921;27;49658;-70
2021/11/19 13:21:50;;;;;;;;;12.75;11.75;;;;;;;;5069817;27;50801;-65
2021/11/19 13:24:25;;;;;;;;;16.50;16.50;;;;;;;;5084314;27;49862;-69
2021/11/19 13:27:10;;;;;;;;;24.50;22.75;;;;;;;;5057102;28;49856;-68
2021/11/19 13:29:35;;;;;;;;;20.00;17.75;;;;;;;;5074237;28;50680;-68
2021/11/19 13:32:18;;;;;;;;;16.50;16.50;;;;;;;;5073711;27;49695;-69
2021/11/19 13:34:47;;;;;;;;;17.25;13.25;;;;;;;;5076184;28;49663;-66
2021/11/19 13:37:21;;;;;;;;;12.75;11.75;;;;;;;;5075249;28;49624;-67
2021/11/19 13:39:47;;;;;;;;;10.00;9.25;;;;;;;;5066910;27;50733;-69
2021/11/19 13:42:12;;;;;;;;;7.00;7.00;;;;;;;;5071723;28;49760;-72
2021/11/19 13:44:59;;;;;;;;;12.75;12.25;;;;;;;;5071109;28;50306;-70
2021/11/19 13:47:37;;;;;;;;;10.75;10.75;;;;;;;;5071435;28;49798;-63
2021/11/19 13:50:16;;;;;;;;;13.75;13.00;;;;;;;;5064144;27;50100;-66
2021/11/19 13:52:57;;;;;;;;;15.00;11.50;;;;;;;;5071561;27;49940;-68
2021/11/19 13:55:23;;;;;;;;;15.25;13.00;;;;;;;;5072501;27;49652;-70
2021/11/19 13:57:53;;;;;;;;;17.50;14.00;;;;;;;;5088202;28;49362;-68
2021/11/19 14:00:32;;;;;;;;;20.00;16.75;;;;;;;;5087365;27;50022;-66
2021/11/19 14:02:58;;;;;;;;;15.25;14.00;;;;;;;;5085338;28;49384;-68
2021/11/19 14:05:25;;;;;;;;;19.50;15.00;;;;;;;;5088292;28;49409;-70
2021/11/19 14:07:50;;;;;;;;;14.75;14.00;;;;;;;;5088335;28;49488;-68
2021/11/19 14:10:21;;;;;;;;;18.00;15.50;;;;;;;;5087908;28;49418;-68
2021/11/19 14:12:47;;;;;;;;;20.25;15.75;;;;;;;;5089111;28;49314;-70
2021/11/19 14:15:35;;;;;;;;;16.00;13.00;;;;;;;;5070827;28;49432;-68
2021/11/19 14:18:08;;;;;;;;;15.00;14.25;;;;;;;;5077326;27;49408;-69
2021/11/19 14:23:24;;;;;;;;;19.75;18.25;;;;;;;;5088811;28;49330;-71
2021/11/19 14:25:51;;;;;;;;;19.75;17.00;;;;;;;;5088732;28;49754;-70
2021/11/19 14:28:24;;;;;;;;;14.75;14.75;;;;;;;;5086566;28;49759;-64
2021/11/19 14:30:51;;;;;;;;;13.00;13.00;;;;;;;;5088733;28;49704;-68